sensor_id;sensor_type;location;lat;lon;timestamp;temperature;humidity
6486;DHT22;3276;48.490;9.222;2023-05-07T00:01:48;14.60;18.80
6486;DHT22;3276;48.490;9.222;2023-05-07T00:04:13;14.50;20.40
6486;DHT22;3276;48.490;9.222;2023-05-07T00:06:39;14.30;21.30
6486;DHT22;3276;48.490;9.222;2023-05-07T00:09:05;14.30;22.00
6486;DHT22;3276;48.490;9.222;2023-05-07T00:11:31;14.30;22.20
6486;DHT22;3276;48.490;9.222;2023-05-07T00:13:56;14.20;23.80
6486;DHT22;3276;48.490;9.222;2023-05-07T00:16:22;14.20;23.60
6486;DHT22;3276;48.490;9.222;2023-05-07T00:18:48;14.10;24.00
6486;DHT22;3276;48.490;9.222;2023-05-07T00:21:14;14.10;24.50
6486;DHT22;3276;48.490;9.222;2023-05-07T00:23:39;14.10;24.80
6486;DHT22;3276;48.490;9.222;2023-05-07T00:26:05;14.10;24.40
6486;DHT22;3276;48.490;9.222;2023-05-07T00:28:30;14.00;24.90
6486;DHT22;3276;48.490;9.222;2023-05-07T00:30:56;13.90;25.30
6486;DHT22;3276;48.490;9.222;2023-05-07T00:33:22;13.90;25.60
6486;DHT22;3276;48.490;9.222;2023-05-07T00:35:50;13.80;26.40
6486;DHT22;3276;48.490;9.222;2023-05-07T00:38:16;13.70;26.50
6486;DHT22;3276;48.490;9.222;2023-05-07T00:40:41;13.70;26.70
6486;DHT22;3276;48.490;9.222;2023-05-07T00:43:07;13.70;26.50
6486;DHT22;3276;48.490;9.222;2023-05-07T00:45:33;13.60;25.10
6486;DHT22;3276;48.490;9.222;2023-05-07T00:48:00;13.70;25.10
6486;DHT22;3276;48.490;9.222;2023-05-07T00:50:29;13.70;25.10
6486;DHT22;3276;48.490;9.222;2023-05-07T00:52:56;13.70;24.80
6486;DHT22;3276;48.490;9.222;2023-05-07T00:55:22;13.80;25.20
6486;DHT22;3276;48.490;9.222;2023-05-07T00:57:49;13.80;25.00
6486;DHT22;3276;48.490;9.222;2023-05-07T01:00:16;13.80;24.80
6486;DHT22;3276;48.490;9.222;2023-05-07T01:02:42;13.80;25.20
6486;DHT22;3276;48.490;9.222;2023-05-07T01:05:15;13.80;24.60
6486;DHT22;3276;48.490;9.222;2023-05-07T01:07:42;13.70;25.10
6486;DHT22;3276;48.490;9.222;2023-05-07T01:10:08;13.70;26.30
6486;DHT22;3276;48.490;9.222;2023-05-07T01:12:37;13.70;25.90
6486;DHT22;3276;48.490;9.222;2023-05-07T01:15:04;13.60;25.90
6486;DHT22;3276;48.490;9.222;2023-05-07T01:17:37;13.60;26.70
6486;DHT22;3276;48.490;9.222;2023-05-07T01:20:04;13.60;26.60
6486;DHT22;3276;48.490;9.222;2023-05-07T01:22:35;13.60;27.40
6486;DHT22;3276;48.490;9.222;2023-05-07T01:25:03;13.50;27.00
6486;DHT22;3276;48.490;9.222;2023-05-07T01:27:28;13.50;28.10
6486;DHT22;3276;48.490;9.222;2023-05-07T01:29:54;13.50;28.50
6486;DHT22;3276;48.490;9.222;2023-05-07T01:32:29;13.40;28.70
6486;DHT22;3276;48.490;9.222;2023-05-07T01:34:57;13.30;29.00
6486;DHT22;3276;48.490;9.222;2023-05-07T01:37:24;13.20;29.50
6486;DHT22;3276;48.490;9.222;2023-05-07T01:39:51;13.20;28.90
6486;DHT22;3276;48.490;9.222;2023-05-07T01:42:21;13.10;28.90
6486;DHT22;3276;48.490;9.222;2023-05-07T01:44:47;13.10;29.50
6486;DHT22;3276;48.490;9.222;2023-05-07T01:47:14;13.10;30.70
6486;DHT22;3276;48.490;9.222;2023-05-07T01:49:40;13.00;31.30
6486;DHT22;3276;48.490;9.222;2023-05-07T01:52:06;13.00;30.30
6486;DHT22;3276;48.490;9.222;2023-05-07T01:54:32;13.10;29.90
6486;DHT22;3276;48.490;9.222;2023-05-07T01:56:57;13.10;30.80
6486;DHT22;3276;48.490;9.222;2023-05-07T01:59:23;13.10;31.20
6486;DHT22;3276;48.490;9.222;2023-05-07T02:01:49;13.10;30.50
6486;DHT22;3276;48.490;9.222;2023-05-07T02:04:14;13.00;30.80
6486;DHT22;3276;48.490;9.222;2023-05-07T02:06:40;13.00;32.70
6486;DHT22;3276;48.490;9.222;2023-05-07T02:09:05;12.90;31.90
6486;DHT22;3276;48.490;9.222;2023-05-07T02:11:31;12.90;33.50
6486;DHT22;3276;48.490;9.222;2023-05-07T02:13:56;12.80;34.40
6486;DHT22;3276;48.490;9.222;2023-05-07T02:16:22;12.70;34.00
6486;DHT22;3276;48.490;9.222;2023-05-07T02:18:49;12.70;35.70
6486;DHT22;3276;48.490;9.222;2023-05-07T02:21:15;12.70;37.80
6486;DHT22;3276;48.490;9.222;2023-05-07T02:23:40;12.60;37.60
6486;DHT22;3276;48.490;9.222;2023-05-07T02:26:06;12.60;38.50
6486;DHT22;3276;48.490;9.222;2023-05-07T02:28:31;12.60;38.70
6486;DHT22;3276;48.490;9.222;2023-05-07T02:30:57;12.60;39.80
6486;DHT22;3276;48.490;9.222;2023-05-07T02:33:25;12.50;40.30
6486;DHT22;3276;48.490;9.222;2023-05-07T02:35:50;12.50;41.30
6486;DHT22;3276;48.490;9.222;2023-05-07T02:38:17;12.50;41.00
6486;DHT22;3276;48.490;9.222;2023-05-07T02:40:43;12.40;40.70
6486;DHT22;3276;48.490;9.222;2023-05-07T02:43:09;12.40;42.80
6486;DHT22;3276;48.490;9.222;2023-05-07T02:45:34;12.40;41.30
6486;DHT22;3276;48.490;9.222;2023-05-07T02:48:01;12.40;41.50
6486;DHT22;3276;48.490;9.222;2023-05-07T02:50:27;12.30;41.00
6486;DHT22;3276;48.490;9.222;2023-05-07T02:52:52;12.20;42.50
6486;DHT22;3276;48.490;9.222;2023-05-07T02:55:18;12.20;42.00
6486;DHT22;3276;48.490;9.222;2023-05-07T02:57:43;12.10;41.60
6486;DHT22;3276;48.490;9.222;2023-05-07T03:00:14;12.10;43.60
6486;DHT22;3276;48.490;9.222;2023-05-07T03:02:40;12.10;43.20
6486;DHT22;3276;48.490;9.222;2023-05-07T03:05:06;12.00;43.10
6486;DHT22;3276;48.490;9.222;2023-05-07T03:07:31;11.90;44.90
6486;DHT22;3276;48.490;9.222;2023-05-07T03:09:57;12.00;44.70
6486;DHT22;3276;48.490;9.222;2023-05-07T03:12:22;11.90;45.30
6486;DHT22;3276;48.490;9.222;2023-05-07T03:14:48;11.90;44.90
6486;DHT22;3276;48.490;9.222;2023-05-07T03:17:14;11.90;46.40
6486;DHT22;3276;48.490;9.222;2023-05-07T03:19:39;11.80;45.30
6486;DHT22;3276;48.490;9.222;2023-05-07T03:22:05;11.70;45.60
6486;DHT22;3276;48.490;9.222;2023-05-07T03:24:30;11.70;46.20
6486;DHT22;3276;48.490;9.222;2023-05-07T03:26:56;11.70;46.10
6486;DHT22;3276;48.490;9.222;2023-05-07T03:29:23;11.70;46.10
6486;DHT22;3276;48.490;9.222;2023-05-07T03:31:48;11.60;45.80
6486;DHT22;3276;48.490;9.222;2023-05-07T03:34:14;11.70;44.40
6486;DHT22;3276;48.490;9.222;2023-05-07T03:36:40;11.70;46.50
6486;DHT22;3276;48.490;9.222;2023-05-07T03:39:05;11.70;46.70
6486;DHT22;3276;48.490;9.222;2023-05-07T03:41:32;11.60;46.00
6486;DHT22;3276;48.490;9.222;2023-05-07T03:43:58;11.60;46.80
6486;DHT22;3276;48.490;9.222;2023-05-07T03:46:23;11.60;46.20
6486;DHT22;3276;48.490;9.222;2023-05-07T03:48:51;11.50;46.00
6486;DHT22;3276;48.490;9.222;2023-05-07T03:51:17;11.40;46.80
6486;DHT22;3276;48.490;9.222;2023-05-07T03:53:42;11.40;47.60
6486;DHT22;3276;48.490;9.222;2023-05-07T03:56:08;11.40;47.70
6486;DHT22;3276;48.490;9.222;2023-05-07T03:58:33;11.30;49.60
6486;DHT22;3276;48.490;9.222;2023-05-07T04:00:59;11.30;48.70
6486;DHT22;3276;48.490;9.222;2023-05-07T04:03:24;11.30;47.80
6486;DHT22;3276;48.490;9.222;2023-05-07T04:05:50;11.30;47.70
6486;DHT22;3276;48.490;9.222;2023-05-07T04:08:15;11.30;48.50
6486;DHT22;3276;48.490;9.222;2023-05-07T04:10:41;11.30;49.10
6486;DHT22;3276;48.490;9.222;2023-05-07T04:13:06;11.30;50.10
6486;DHT22;3276;48.490;9.222;2023-05-07T04:15:32;11.30;50.60
6486;DHT22;3276;48.490;9.222;2023-05-07T04:17:57;11.30;51.00
6486;DHT22;3276;48.490;9.222;2023-05-07T04:20:23;11.30;50.10
6486;DHT22;3276;48.490;9.222;2023-05-07T04:22:49;11.30;50.80
6486;DHT22;3276;48.490;9.222;2023-05-07T04:25:17;11.40;50.40
6486;DHT22;3276;48.490;9.222;2023-05-07T04:27:42;11.40;49.50
6486;DHT22;3276;48.490;9.222;2023-05-07T04:30:08;11.40;49.00
6486;DHT22;3276;48.490;9.222;2023-05-07T04:32:34;11.40;49.60
6486;DHT22;3276;48.490;9.222;2023-05-07T04:34:59;11.40;50.10
6486;DHT22;3276;48.490;9.222;2023-05-07T04:37:25;11.40;52.20
6486;DHT22;3276;48.490;9.222;2023-05-07T04:39:51;11.50;49.90
6486;DHT22;3276;48.490;9.222;2023-05-07T04:42:17;11.60;47.90
6486;DHT22;3276;48.490;9.222;2023-05-07T04:44:44;11.60;47.30
6486;DHT22;3276;48.490;9.222;2023-05-07T04:47:10;11.70;45.80
6486;DHT22;3276;48.490;9.222;2023-05-07T04:49:36;11.70;47.60
6486;DHT22;3276;48.490;9.222;2023-05-07T04:52:02;11.70;46.80
6486;DHT22;3276;48.490;9.222;2023-05-07T04:54:28;11.70;46.10
6486;DHT22;3276;48.490;9.222;2023-05-07T04:56:54;11.80;47.00
6486;DHT22;3276;48.490;9.222;2023-05-07T04:59:19;11.80;46.50
6486;DHT22;3276;48.490;9.222;2023-05-07T05:01:45;11.90;45.90
6486;DHT22;3276;48.490;9.222;2023-05-07T05:04:11;12.00;44.40
6486;DHT22;3276;48.490;9.222;2023-05-07T05:06:36;12.10;41.30
6486;DHT22;3276;48.490;9.222;2023-05-07T05:09:02;12.20;41.80
6486;DHT22;3276;48.490;9.222;2023-05-07T05:11:27;12.20;42.30
6486;DHT22;3276;48.490;9.222;2023-05-07T05:13:53;12.20;41.90
6486;DHT22;3276;48.490;9.222;2023-05-07T05:16:18;12.30;43.30
6486;DHT22;3276;48.490;9.222;2023-05-07T05:18:44;12.50;41.80
6486;DHT22;3276;48.490;9.222;2023-05-07T05:21:10;12.70;41.00
6486;DHT22;3276;48.490;9.222;2023-05-07T05:23:35;12.90;38.70
6486;DHT22;3276;48.490;9.222;2023-05-07T05:26:01;13.00;37.40
6486;DHT22;3276;48.490;9.222;2023-05-07T05:28:26;13.40;36.20
6486;DHT22;3276;48.490;9.222;2023-05-07T05:30:53;14.10;30.90
6486;DHT22;3276;48.490;9.222;2023-05-07T05:33:18;15.00;26.90
6486;DHT22;3276;48.490;9.222;2023-05-07T05:35:44;16.60;21.30
6486;DHT22;3276;48.490;9.222;2023-05-07T05:38:10;18.10;14.50
6486;DHT22;3276;48.490;9.222;2023-05-07T05:40:35;18.70;11.60
6486;DHT22;3276;48.490;9.222;2023-05-07T05:43:01;20.20;7.70
6486;DHT22;3276;48.490;9.222;2023-05-07T05:45:26;21.70;4.90
6486;DHT22;3276;48.490;9.222;2023-05-07T05:47:52;22.80;2.50
6486;DHT22;3276;48.490;9.222;2023-05-07T05:50:17;24.10;1.10
6486;DHT22;3276;48.490;9.222;2023-05-07T05:52:43;24.60;1.00
6486;DHT22;3276;48.490;9.222;2023-05-07T05:55:09;23.30;1.00
6486;DHT22;3276;48.490;9.222;2023-05-07T05:57:34;23.60;1.00
6486;DHT22;3276;48.490;9.222;2023-05-07T06:00:01;24.10;1.00
6486;DHT22;3276;48.490;9.222;2023-05-07T06:02:27;24.70;1.00
6486;DHT22;3276;48.490;9.222;2023-05-07T06:04:53;25.40;1.00
6486;DHT22;3276;48.490;9.222;2023-05-07T06:07:18;25.90;1.00
6486;DHT22;3276;48.490;9.222;2023-05-07T06:09:44;26.10;1.00
6486;DHT22;3276;48.490;9.222;2023-05-07T06:12:10;25.50;1.00
6486;DHT22;3276;48.490;9.222;2023-05-07T06:14:35;26.50;1.00
6486;DHT22;3276;48.490;9.222;2023-05-07T06:17:01;26.90;1.00
6486;DHT22;3276;48.490;9.222;2023-05-07T06:19:26;27.40;1.00
6486;DHT22;3276;48.490;9.222;2023-05-07T06:21:53;27.90;1.00
6486;DHT22;3276;48.490;9.222;2023-05-07T06:24:19;26.90;1.00
6486;DHT22;3276;48.490;9.222;2023-05-07T06:26:44;26.50;1.00
6486;DHT22;3276;48.490;9.222;2023-05-07T06:29:10;26.70;1.00
6486;DHT22;3276;48.490;9.222;2023-05-07T06:31:35;25.90;1.00
6486;DHT22;3276;48.490;9.222;2023-05-07T06:34:01;25.90;1.00
6486;DHT22;3276;48.490;9.222;2023-05-07T06:36:27;27.20;1.00
6486;DHT22;3276;48.490;9.222;2023-05-07T06:38:53;27.00;1.00
6486;DHT22;3276;48.490;9.222;2023-05-07T06:41:19;26.90;1.00
6486;DHT22;3276;48.490;9.222;2023-05-07T06:43:45;27.40;1.00
6486;DHT22;3276;48.490;9.222;2023-05-07T06:46:11;28.30;1.00
6486;DHT22;3276;48.490;9.222;2023-05-07T06:48:36;27.00;1.00
6486;DHT22;3276;48.490;9.222;2023-05-07T06:51:02;26.80;1.00
6486;DHT22;3276;48.490;9.222;2023-05-07T06:53:28;27.00;1.00
6486;DHT22;3276;48.490;9.222;2023-05-07T06:55:54;26.50;1.00
6486;DHT22;3276;48.490;9.222;2023-05-07T06:58:20;27.10;1.00
6486;DHT22;3276;48.490;9.222;2023-05-07T07:00:46;26.90;1.00
6486;DHT22;3276;48.490;9.222;2023-05-07T07:03:11;26.10;1.00
6486;DHT22;3276;48.490;9.222;2023-05-07T07:05:37;25.80;1.00
6486;DHT22;3276;48.490;9.222;2023-05-07T07:08:02;25.50;1.00
6486;DHT22;3276;48.490;9.222;2023-05-07T07:10:28;25.60;1.00
6486;DHT22;3276;48.490;9.222;2023-05-07T07:12:53;26.00;1.00
6486;DHT22;3276;48.490;9.222;2023-05-07T07:15:20;26.20;1.00
6486;DHT22;3276;48.490;9.222;2023-05-07T07:17:46;27.20;1.00
6486;DHT22;3276;48.490;9.222;2023-05-07T07:20:11;27.50;1.00
6486;DHT22;3276;48.490;9.222;2023-05-07T07:22:37;27.80;1.00
6486;DHT22;3276;48.490;9.222;2023-05-07T07:25:03;29.20;1.00
6486;DHT22;3276;48.490;9.222;2023-05-07T07:27:28;30.50;1.00
6486;DHT22;3276;48.490;9.222;2023-05-07T07:29:54;30.20;1.00
6486;DHT22;3276;48.490;9.222;2023-05-07T07:32:20;30.70;1.00
6486;DHT22;3276;48.490;9.222;2023-05-07T07:34:45;29.70;1.00
6486;DHT22;3276;48.490;9.222;2023-05-07T07:37:11;30.00;1.00
6486;DHT22;3276;48.490;9.222;2023-05-07T07:39:36;31.30;1.00
6486;DHT22;3276;48.490;9.222;2023-05-07T07:42:03;30.70;1.00
6486;DHT22;3276;48.490;9.222;2023-05-07T07:44:28;29.40;1.00
6486;DHT22;3276;48.490;9.222;2023-05-07T07:46:54;29.20;1.00
6486;DHT22;3276;48.490;9.222;2023-05-07T07:49:19;29.40;1.00
6486;DHT22;3276;48.490;9.222;2023-05-07T07:51:45;28.90;1.00
6486;DHT22;3276;48.490;9.222;2023-05-07T07:54:11;28.60;1.00
6486;DHT22;3276;48.490;9.222;2023-05-07T07:56:36;27.90;1.00
6486;DHT22;3276;48.490;9.222;2023-05-07T07:59:02;26.70;1.00
6486;DHT22;3276;48.490;9.222;2023-05-07T08:01:29;25.80;1.00
6486;DHT22;3276;48.490;9.222;2023-05-07T08:03:55;25.60;1.00
6486;DHT22;3276;48.490;9.222;2023-05-07T08:06:21;25.20;1.00
6486;DHT22;3276;48.490;9.222;2023-05-07T08:08:46;24.70;1.00
6486;DHT22;3276;48.490;9.222;2023-05-07T08:11:12;24.30;1.00
6486;DHT22;3276;48.490;9.222;2023-05-07T08:13:38;24.10;1.00
6486;DHT22;3276;48.490;9.222;2023-05-07T08:16:04;23.50;1.00
6486;DHT22;3276;48.490;9.222;2023-05-07T08:18:30;23.60;1.00
6486;DHT22;3276;48.490;9.222;2023-05-07T08:20:55;23.50;1.00
6486;DHT22;3276;48.490;9.222;2023-05-07T08:23:21;23.50;1.00
6486;DHT22;3276;48.490;9.222;2023-05-07T08:25:48;23.20;1.00
6486;DHT22;3276;48.490;9.222;2023-05-07T08:28:13;22.80;1.00
6486;DHT22;3276;48.490;9.222;2023-05-07T08:30:39;22.90;1.00
6486;DHT22;3276;48.490;9.222;2023-05-07T08:33:04;23.50;1.00
6486;DHT22;3276;48.490;9.222;2023-05-07T08:35:30;23.50;1.00
6486;DHT22;3276;48.490;9.222;2023-05-07T08:37:55;23.10;1.00
6486;DHT22;3276;48.490;9.222;2023-05-07T08:40:25;22.60;1.00
6486;DHT22;3276;48.490;9.222;2023-05-07T08:42:52;22.40;1.00
6486;DHT22;3276;48.490;9.222;2023-05-07T08:45:19;22.20;1.20
6486;DHT22;3276;48.490;9.222;2023-05-07T08:47:50;22.10;2.20
6486;DHT22;3276;48.490;9.222;2023-05-07T08:50:17;22.60;1.60
6486;DHT22;3276;48.490;9.222;2023-05-07T08:52:43;22.40;1.80
6486;DHT22;3276;48.490;9.222;2023-05-07T08:55:09;22.20;2.50
6486;DHT22;3276;48.490;9.222;2023-05-07T08:57:35;22.30;2.50
6486;DHT22;3276;48.490;9.222;2023-05-07T09:00:03;22.50;2.40
6486;DHT22;3276;48.490;9.222;2023-05-07T09:02:29;22.70;2.40
6486;DHT22;3276;48.490;9.222;2023-05-07T09:04:55;22.60;2.70
6486;DHT22;3276;48.490;9.222;2023-05-07T09:07:21;22.30;3.50
6486;DHT22;3276;48.490;9.222;2023-05-07T09:09:47;22.10;4.50
6486;DHT22;3276;48.490;9.222;2023-05-07T09:12:13;22.10;4.60
6486;DHT22;3276;48.490;9.222;2023-05-07T09:14:39;22.30;4.80
6486;DHT22;3276;48.490;9.222;2023-05-07T09:17:04;22.30;4.80
6486;DHT22;3276;48.490;9.222;2023-05-07T09:19:30;22.30;4.40
6486;DHT22;3276;48.490;9.222;2023-05-07T09:22:03;22.50;4.70
6486;DHT22;3276;48.490;9.222;2023-05-07T09:24:30;22.50;4.10
6486;DHT22;3276;48.490;9.222;2023-05-07T09:27:00;22.90;3.00
6486;DHT22;3276;48.490;9.222;2023-05-07T09:29:27;23.10;2.90
6486;DHT22;3276;48.490;9.222;2023-05-07T09:31:54;23.20;3.10
6486;DHT22;3276;48.490;9.222;2023-05-07T09:34:20;23.30;3.40
6486;DHT22;3276;48.490;9.222;2023-05-07T09:36:46;23.30;2.50
6486;DHT22;3276;48.490;9.222;2023-05-07T09:39:13;23.40;2.30
6486;DHT22;3276;48.490;9.222;2023-05-07T09:41:47;23.50;2.00
6486;DHT22;3276;48.490;9.222;2023-05-07T09:44:15;23.70;2.10
6486;DHT22;3276;48.490;9.222;2023-05-07T09:46:42;23.80;2.10
6486;DHT22;3276;48.490;9.222;2023-05-07T09:49:13;23.80;1.00
6486;DHT22;3276;48.490;9.222;2023-05-07T09:51:48;23.80;1.00
6486;DHT22;3276;48.490;9.222;2023-05-07T09:54:15;23.70;2.80
6486;DHT22;3276;48.490;9.222;2023-05-07T09:56:40;24.00;2.20
6486;DHT22;3276;48.490;9.222;2023-05-07T09:59:08;24.40;1.30
6486;DHT22;3276;48.490;9.222;2023-05-07T10:01:36;24.40;1.30
6486;DHT22;3276;48.490;9.222;2023-05-07T10:04:03;24.70;1.00
6486;DHT22;3276;48.490;9.222;2023-05-07T10:06:30;24.60;1.00
6486;DHT22;3276;48.490;9.222;2023-05-07T10:08:56;24.60;1.00
6486;DHT22;3276;48.490;9.222;2023-05-07T10:11:22;24.70;1.00
6486;DHT22;3276;48.490;9.222;2023-05-07T10:13:48;24.90;1.00
6486;DHT22;3276;48.490;9.222;2023-05-07T10:16:14;25.10;1.00
6486;DHT22;3276;48.490;9.222;2023-05-07T10:18:40;25.20;1.00
6486;DHT22;3276;48.490;9.222;2023-05-07T10:21:23;25.50;1.00
6486;DHT22;3276;48.490;9.222;2023-05-07T10:23:51;25.70;1.00
6486;DHT22;3276;48.490;9.222;2023-05-07T10:26:20;25.80;1.00
6486;DHT22;3276;48.490;9.222;2023-05-07T10:28:50;25.70;1.00
6486;DHT22;3276;48.490;9.222;2023-05-07T10:34:14;26.00;1.00
6486;DHT22;3276;48.490;9.222;2023-05-07T10:36:40;26.30;1.00
6486;DHT22;3276;48.490;9.222;2023-05-07T10:39:06;26.30;1.00
6486;DHT22;3276;48.490;9.222;2023-05-07T10:41:32;26.30;1.00
6486;DHT22;3276;48.490;9.222;2023-05-07T10:43:57;26.40;1.00
6486;DHT22;3276;48.490;9.222;2023-05-07T10:46:26;26.10;1.00
6486;DHT22;3276;48.490;9.222;2023-05-07T10:51:32;25.70;1.00
6486;DHT22;3276;48.490;9.222;2023-05-07T10:54:24;25.50;1.00
6486;DHT22;3276;48.490;9.222;2023-05-07T10:56:50;25.50;1.00
6486;DHT22;3276;48.490;9.222;2023-05-07T11:02:05;25.70;1.00
6486;DHT22;3276;48.490;9.222;2023-05-07T11:04:35;25.60;1.00
6486;DHT22;3276;48.490;9.222;2023-05-07T11:10:03;25.70;1.00
6486;DHT22;3276;48.490;9.222;2023-05-07T11:15:06;25.50;1.00
6486;DHT22;3276;48.490;9.222;2023-05-07T11:17:33;25.40;1.00
6486;DHT22;3276;48.490;9.222;2023-05-07T11:20:00;25.30;1.00
6486;DHT22;3276;48.490;9.222;2023-05-07T11:25:06;25.20;1.00
6486;DHT22;3276;48.490;9.222;2023-05-07T11:27:32;25.20;1.00
6486;DHT22;3276;48.490;9.222;2023-05-07T11:29:58;25.20;1.00
6486;DHT22;3276;48.490;9.222;2023-05-07T11:32:24;24.60;1.00
6486;DHT22;3276;48.490;9.222;2023-05-07T11:34:54;23.80;1.00
6486;DHT22;3276;48.490;9.222;2023-05-07T11:37:21;23.30;1.90
6486;DHT22;3276;48.490;9.222;2023-05-07T11:39:47;23.30;9.70
6486;DHT22;3276;48.490;9.222;2023-05-07T11:42:29;23.10;8.60
6486;DHT22;3276;48.490;9.222;2023-05-07T11:44:54;22.00;11.70
6486;DHT22;3276;48.490;9.222;2023-05-07T11:47:20;21.20;16.50
6486;DHT22;3276;48.490;9.222;2023-05-07T11:49:48;20.90;18.80
6486;DHT22;3276;48.490;9.222;2023-05-07T11:52:14;20.60;22.20
6486;DHT22;3276;48.490;9.222;2023-05-07T11:54:39;20.50;23.00
6486;DHT22;3276;48.490;9.222;2023-05-07T11:57:05;20.40;21.20
6486;DHT22;3276;48.490;9.222;2023-05-07T11:59:41;20.30;21.10
6486;DHT22;3276;48.490;9.222;2023-05-07T12:02:09;20.40;21.70
6486;DHT22;3276;48.490;9.222;2023-05-07T12:04:35;20.60;20.50
6486;DHT22;3276;48.490;9.222;2023-05-07T12:07:00;20.90;19.60
6486;DHT22;3276;48.490;9.222;2023-05-07T12:09:26;21.00;16.80
6486;DHT22;3276;48.490;9.222;2023-05-07T12:11:52;21.20;15.30
6486;DHT22;3276;48.490;9.222;2023-05-07T12:14:18;21.50;14.10
6486;DHT22;3276;48.490;9.222;2023-05-07T12:16:44;21.80;14.60
6486;DHT22;3276;48.490;9.222;2023-05-07T12:19:11;21.90;12.70
6486;DHT22;3276;48.490;9.222;2023-05-07T12:21:38;22.00;9.30
6486;DHT22;3276;48.490;9.222;2023-05-07T12:24:05;21.80;9.20
6486;DHT22;3276;48.490;9.222;2023-05-07T12:26:30;21.80;8.80
6486;DHT22;3276;48.490;9.222;2023-05-07T12:28:57;21.70;8.80
6486;DHT22;3276;48.490;9.222;2023-05-07T12:31:25;21.40;9.20
6486;DHT22;3276;48.490;9.222;2023-05-07T12:33:50;21.40;8.50
6486;DHT22;3276;48.490;9.222;2023-05-07T12:36:16;21.30;9.20
6486;DHT22;3276;48.490;9.222;2023-05-07T12:38:42;21.10;8.50
6486;DHT22;3276;48.490;9.222;2023-05-07T12:41:09;21.10;9.50
6486;DHT22;3276;48.490;9.222;2023-05-07T12:43:35;21.00;10.70
6486;DHT22;3276;48.490;9.222;2023-05-07T12:46:05;21.00;13.30
6486;DHT22;3276;48.490;9.222;2023-05-07T12:48:31;21.00;14.50
6486;DHT22;3276;48.490;9.222;2023-05-07T12:50:58;20.80;18.40
6486;DHT22;3276;48.490;9.222;2023-05-07T12:53:25;20.60;18.70
6486;DHT22;3276;48.490;9.222;2023-05-07T12:55:54;20.50;16.90
6486;DHT22;3276;48.490;9.222;2023-05-07T12:58:30;20.40;19.40
6486;DHT22;3276;48.490;9.222;2023-05-07T13:00:59;20.30;21.40
6486;DHT22;3276;48.490;9.222;2023-05-07T13:03:28;20.20;19.50
6486;DHT22;3276;48.490;9.222;2023-05-07T13:05:58;20.10;21.80
6486;DHT22;3276;48.490;9.222;2023-05-07T13:08:29;20.00;21.70
6486;DHT22;3276;48.490;9.222;2023-05-07T13:10:56;20.00;22.80
6486;DHT22;3276;48.490;9.222;2023-05-07T13:13:22;19.80;23.90
6486;DHT22;3276;48.490;9.222;2023-05-07T13:15:48;19.40;21.30
6486;DHT22;3276;48.490;9.222;2023-05-07T13:18:13;19.20;21.50
6486;DHT22;3276;48.490;9.222;2023-05-07T13:20:39;18.90;19.30
6486;DHT22;3276;48.490;9.222;2023-05-07T13:23:06;18.60;18.10
6486;DHT22;3276;48.490;9.222;2023-05-07T13:25:31;18.20;19.70
6486;DHT22;3276;48.490;9.222;2023-05-07T13:27:57;17.90;23.80
6486;DHT22;3276;48.490;9.222;2023-05-07T13:30:22;17.70;25.90
6486;DHT22;3276;48.490;9.222;2023-05-07T13:32:48;17.40;28.40
6486;DHT22;3276;48.490;9.222;2023-05-07T13:35:15;17.30;30.80
6486;DHT22;3276;48.490;9.222;2023-05-07T13:37:41;17.10;31.60
6486;DHT22;3276;48.490;9.222;2023-05-07T13:40:06;17.00;35.20
6486;DHT22;3276;48.490;9.222;2023-05-07T13:42:32;16.80;35.80
6486;DHT22;3276;48.490;9.222;2023-05-07T13:44:58;16.60;37.60
6486;DHT22;3276;48.490;9.222;2023-05-07T13:47:23;16.50;39.60
6486;DHT22;3276;48.490;9.222;2023-05-07T13:49:49;16.40;41.90
6486;DHT22;3276;48.490;9.222;2023-05-07T13:52:16;16.30;43.20
6486;DHT22;3276;48.490;9.222;2023-05-07T13:54:41;16.30;43.80
6486;DHT22;3276;48.490;9.222;2023-05-07T13:57:07;16.20;43.70
6486;DHT22;3276;48.490;9.222;2023-05-07T13:59:33;16.20;41.70
6486;DHT22;3276;48.490;9.222;2023-05-07T14:01:59;16.10;42.80
6486;DHT22;3276;48.490;9.222;2023-05-07T14:04:25;16.10;44.00
6486;DHT22;3276;48.490;9.222;2023-05-07T14:06:51;16.00;44.30
6486;DHT22;3276;48.490;9.222;2023-05-07T14:09:16;16.00;44.60
6486;DHT22;3276;48.490;9.222;2023-05-07T14:11:42;16.00;44.60
6486;DHT22;3276;48.490;9.222;2023-05-07T14:14:08;16.00;44.00
6486;DHT22;3276;48.490;9.222;2023-05-07T14:16:36;16.10;44.00
6486;DHT22;3276;48.490;9.222;2023-05-07T14:19:01;16.10;41.90
6486;DHT22;3276;48.490;9.222;2023-05-07T14:21:27;15.90;40.30
6486;DHT22;3276;48.490;9.222;2023-05-07T14:23:52;16.00;41.60
6486;DHT22;3276;48.490;9.222;2023-05-07T14:26:18;16.00;39.10
6486;DHT22;3276;48.490;9.222;2023-05-07T14:28:44;16.20;40.00
6486;DHT22;3276;48.490;9.222;2023-05-07T14:31:12;16.20;41.20
6486;DHT22;3276;48.490;9.222;2023-05-07T14:33:37;16.20;41.50
6486;DHT22;3276;48.490;9.222;2023-05-07T14:36:03;16.30;40.20
6486;DHT22;3276;48.490;9.222;2023-05-07T14:38:29;16.30;40.90
6486;DHT22;3276;48.490;9.222;2023-05-07T14:40:55;16.40;40.40
6486;DHT22;3276;48.490;9.222;2023-05-07T14:43:21;16.40;38.90
6486;DHT22;3276;48.490;9.222;2023-05-07T14:45:47;16.50;39.60
6486;DHT22;3276;48.490;9.222;2023-05-07T14:48:13;16.70;38.80
6486;DHT22;3276;48.490;9.222;2023-05-07T14:50:45;16.80;35.80
6486;DHT22;3276;48.490;9.222;2023-05-07T14:53:11;16.80;34.30
6486;DHT22;3276;48.490;9.222;2023-05-07T14:55:37;16.80;37.00
6486;DHT22;3276;48.490;9.222;2023-05-07T14:58:02;16.80;38.40
6486;DHT22;3276;48.490;9.222;2023-05-07T15:00:28;16.80;36.50
6486;DHT22;3276;48.490;9.222;2023-05-07T15:03:00;16.90;36.90
6486;DHT22;3276;48.490;9.222;2023-05-07T15:05:29;17.20;34.10
6486;DHT22;3276;48.490;9.222;2023-05-07T15:07:55;17.50;33.30
6486;DHT22;3276;48.490;9.222;2023-05-07T15:10:21;17.80;29.10
6486;DHT22;3276;48.490;9.222;2023-05-07T15:12:46;18.00;27.10
6486;DHT22;3276;48.490;9.222;2023-05-07T15:15:12;18.10;23.90
6486;DHT22;3276;48.490;9.222;2023-05-07T15:17:37;18.40;25.90
6486;DHT22;3276;48.490;9.222;2023-05-07T15:20:03;18.40;26.90
6486;DHT22;3276;48.490;9.222;2023-05-07T15:22:30;18.60;23.80
6486;DHT22;3276;48.490;9.222;2023-05-07T15:24:56;18.80;22.60
6486;DHT22;3276;48.490;9.222;2023-05-07T15:27:22;18.70;24.60
6486;DHT22;3276;48.490;9.222;2023-05-07T15:29:48;18.80;25.40
6486;DHT22;3276;48.490;9.222;2023-05-07T15:32:13;18.80;23.90
6486;DHT22;3276;48.490;9.222;2023-05-07T15:34:39;18.60;24.20
6486;DHT22;3276;48.490;9.222;2023-05-07T15:37:04;18.60;24.20
6486;DHT22;3276;48.490;9.222;2023-05-07T15:39:30;18.80;24.40
6486;DHT22;3276;48.490;9.222;2023-05-07T15:41:56;19.10;22.80
6486;DHT22;3276;48.490;9.222;2023-05-07T15:44:22;19.10;20.30
6486;DHT22;3276;48.490;9.222;2023-05-07T15:46:47;19.30;19.60
6486;DHT22;3276;48.490;9.222;2023-05-07T15:49:13;19.40;18.90
6486;DHT22;3276;48.490;9.222;2023-05-07T15:51:38;19.40;21.10
6486;DHT22;3276;48.490;9.222;2023-05-07T15:54:04;19.40;21.10
6486;DHT22;3276;48.490;9.222;2023-05-07T15:56:30;19.60;20.60
6486;DHT22;3276;48.490;9.222;2023-05-07T15:58:58;19.60;19.20
6486;DHT22;3276;48.490;9.222;2023-05-07T16:01:24;19.50;20.10
6486;DHT22;3276;48.490;9.222;2023-05-07T16:03:49;19.10;20.30
6486;DHT22;3276;48.490;9.222;2023-05-07T16:06:15;19.20;20.40
6486;DHT22;3276;48.490;9.222;2023-05-07T16:08:40;19.10;21.80
6486;DHT22;3276;48.490;9.222;2023-05-07T16:11:08;18.90;20.90
6486;DHT22;3276;48.490;9.222;2023-05-07T16:13:34;18.80;22.10
6486;DHT22;3276;48.490;9.222;2023-05-07T16:16:01;18.80;21.60
6486;DHT22;3276;48.490;9.222;2023-05-07T16:18:27;18.90;20.80